createdAt,value
2022-09-28T00:01:44.601Z,97062.25
2022-09-28T00:04:12.181Z,97056.31
2022-09-28T00:06:38.990Z,97050.97
2022-09-28T00:09:05.465Z,97037.72
2022-09-28T00:11:31.988Z,97037.72
2022-09-28T00:14:03.509Z,97029.53
2022-09-28T00:16:32.894Z,97019.84
2022-09-28T00:18:59.947Z,97008.59
2022-09-28T00:21:31.943Z,97012.84
2022-09-28T00:24:12.968Z,97001.53
2022-09-28T00:26:42.873Z,96996.56
2022-09-28T00:29:16.548Z,96999.56
2022-09-28T00:31:43.232Z,96990.16
2022-09-28T00:34:09.808Z,96989.69
2022-09-28T00:36:36.730Z,96984.81
2022-09-28T00:39:06.137Z,96978.75
2022-09-28T00:41:32.694Z,96977.38
2022-09-28T00:44:24.026Z,96978.34
2022-09-28T00:47:31.188Z,96969.25
2022-09-28T00:50:03.458Z,96969.66
2022-09-28T00:52:50.375Z,96961.22
2022-09-28T00:55:22.739Z,96957.78
2022-09-28T00:57:55.908Z,96953.69
2022-09-28T01:00:22.722Z,96943.50
2022-09-28T01:02:49.299Z,96940.81
2022-09-28T01:05:17.773Z,96932.75
2022-09-28T01:07:46.415Z,96931.91
2022-09-28T01:10:13.438Z,96918.13
2022-09-28T01:12:39.857Z,96921.56
2022-09-28T01:15:06.894Z,96900.41
2022-09-28T01:18:08.377Z,96901.94
2022-09-28T01:20:47.280Z,96892.03
2022-09-28T01:23:19.505Z,96896.97
2022-09-28T01:26:09.538Z,96886.00
2022-09-28T01:28:36.503Z,96875.66
2022-09-28T01:31:10.514Z,96866.22
2022-09-28T01:33:55.369Z,96860.91
2022-09-28T01:36:28.132Z,96859.59
2022-09-28T01:39:11.620Z,96852.56
2022-09-28T01:41:41.699Z,96852.75
2022-09-28T01:44:16.102Z,96839.31
2022-09-28T01:46:46.749Z,96834.94
2022-09-28T01:49:40.107Z,96819.75
2022-09-28T01:52:13.336Z,96820.28
2022-09-28T01:54:46.230Z,96805.78
2022-09-28T01:57:24.046Z,96804.03
2022-09-28T02:00:14.874Z,96799.97
2022-09-28T02:02:44.723Z,96800.34
2022-09-28T02:05:28.264Z,96788.78
2022-09-28T02:07:59.584Z,96797.13
2022-09-28T02:10:33.547Z,96795.53
2022-09-28T02:13:06.063Z,96792.34
2022-09-28T02:15:40.873Z,96789.38
2022-09-28T02:18:07.953Z,96780.41
2022-09-28T02:20:36.595Z,96774.59
2022-09-28T02:23:04.988Z,96771.50
2022-09-28T02:25:50.288Z,96767.34
2022-09-28T02:28:16.742Z,96763.34
2022-09-28T02:30:44.604Z,96761.75
2022-09-28T02:33:21.777Z,96745.69
2022-09-28T02:35:48.233Z,96753.94
2022-09-28T02:38:15.520Z,96779.78
2022-09-28T02:40:46.008Z,96773.59
2022-09-28T02:43:24.678Z,96763.84
2022-09-28T02:46:26.813Z,96762.09
2022-09-28T02:49:21.711Z,96769.53
2022-09-28T02:52:26.616Z,96772.72
2022-09-28T02:55:14.935Z,96766.59
2022-09-28T02:57:56.339Z,96752.66
2022-09-28T03:00:24.258Z,96751.56
2022-09-28T03:03:12.128Z,96754.16
2022-09-28T03:05:52.695Z,96743.50
2022-09-28T03:08:39.224Z,96749.81
2022-09-28T03:11:13.900Z,96745.03
2022-09-28T03:13:41.869Z,96737.69
2022-09-28T03:16:13.528Z,96746.25
2022-09-28T03:18:40.991Z,96746.78
2022-09-28T03:21:09.344Z,96748.66
2022-09-28T03:23:35.792Z,96755.25
2022-09-28T03:26:02.206Z,96753.09
2022-09-28T03:28:29.246Z,96749.59
2022-09-28T03:30:56.167Z,96745.09
2022-09-28T03:33:22.897Z,96742.41
2022-09-28T03:35:50.587Z,96734.84
2022-09-28T03:38:20.634Z,96738.97
2022-09-28T03:41:00.072Z,96730.84
2022-09-28T03:43:27.946Z,96722.19
2022-09-28T03:45:56.308Z,96729.22
2022-09-28T03:48:32.047Z,96725.53
2022-09-28T03:51:01.604Z,96710.50
2022-09-28T03:53:29.780Z,96709.47
2022-09-28T03:55:56.667Z,96706.84
2022-09-28T03:58:23.468Z,96708.28
2022-09-28T04:00:50.352Z,96696.03
2022-09-28T04:03:16.849Z,96693.91
2022-09-28T04:05:51.003Z,96700.91
2022-09-28T04:08:17.873Z,96695.53
2022-09-28T04:10:44.274Z,96704.91
2022-09-28T04:13:10.777Z,96696.75
2022-09-28T04:15:38.484Z,96692.03
2022-09-28T04:18:12.246Z,96688.84
2022-09-28T04:20:41.038Z,96680.25
2022-09-28T04:23:07.530Z,96684.63
2022-09-28T04:25:33.941Z,96686.22
2022-09-28T04:28:19.413Z,96671.09
2022-09-28T04:30:47.319Z,96680.25
2022-09-28T04:33:13.892Z,96669.50
2022-09-28T04:35:40.311Z,96670.94
2022-09-28T04:38:06.811Z,96669.78
2022-09-28T04:40:33.288Z,96676.13
2022-09-28T04:42:59.729Z,96676.25
2022-09-28T04:45:26.953Z,96677.63
2022-09-28T04:47:53.881Z,96677.44
2022-09-28T04:50:20.787Z,96676.41
2022-09-28T04:52:47.231Z,96686.78
2022-09-28T04:55:14.520Z,96691.94
2022-09-28T04:57:41.188Z,96681.41
2022-09-28T05:00:09.395Z,96689.63
2022-09-28T05:02:35.951Z,96693.69
2022-09-28T05:05:02.394Z,96694.56
2022-09-28T05:07:29.099Z,96691.06
2022-09-28T05:09:55.875Z,96685.78
2022-09-28T05:12:22.330Z,96694.34
2022-09-28T05:14:48.743Z,96692.53
2022-09-28T05:17:15.173Z,96709.47
2022-09-28T05:19:41.622Z,96725.03
2022-09-28T05:22:11.456Z,96712.31
2022-09-28T05:24:37.907Z,96715.50
2022-09-28T05:27:05.085Z,96709.47
2022-09-28T05:29:32.577Z,96713.75
2022-09-28T05:32:01.577Z,96725.78
2022-09-28T05:34:28.900Z,96727.28
2022-09-28T05:36:55.537Z,96731.25
2022-09-28T05:39:22.035Z,96740.44
2022-09-28T05:41:48.453Z,96734.41
2022-09-28T05:44:15.094Z,96741.38
2022-09-28T05:46:41.673Z,96738.41
2022-09-28T05:49:08.120Z,96740.59
2022-09-28T05:51:34.567Z,96743.28
2022-09-28T05:54:05.604Z,96745.75
2022-09-28T05:56:33.006Z,96740.69
2022-09-28T05:58:59.593Z,96739.63
2022-09-28T06:01:26.294Z,96744.78
2022-09-28T06:03:52.749Z,96735.84
2022-09-28T06:06:19.218Z,96743.28
2022-09-28T06:08:46.405Z,96744.78
2022-09-28T06:11:12.843Z,96742.09
2022-09-28T06:13:42.733Z,96737.63
2022-09-28T06:16:15.161Z,96744.22
2022-09-28T06:18:42.125Z,96740.88
2022-09-28T06:21:10.889Z,96745.00
2022-09-28T06:23:39.938Z,96741.97
2022-09-28T06:26:07.032Z,96746.09
2022-09-28T06:28:33.497Z,96755.09
2022-09-28T06:31:01.082Z,96764.09
2022-09-28T06:33:27.612Z,96765.97
2022-09-28T06:35:54.357Z,96767.81
2022-09-28T06:38:20.780Z,96767.22
2022-09-28T06:40:47.322Z,96761.03
2022-09-28T06:43:17.794Z,96777.19
2022-09-28T06:45:50.233Z,96796.16
2022-09-28T06:48:17.530Z,96786.78
2022-09-28T06:50:44.209Z,96800.53
2022-09-28T06:53:13.620Z,96787.84
2022-09-28T06:55:42.058Z,96783.19
2022-09-28T06:58:13.282Z,96788.59
2022-09-28T07:00:40.747Z,96793.66
2022-09-28T07:03:12.645Z,96786.53
2022-09-28T07:05:44.427Z,96801.66
2022-09-28T07:08:11.360Z,96811.84
2022-09-28T07:10:44.265Z,96801.06
2022-09-28T07:13:34.404Z,96803.19
2022-09-28T07:15:59.623Z,96801.28
2022-09-28T07:18:26.824Z,96809.53
2022-09-28T07:20:57.052Z,96807.91
2022-09-28T07:23:24.316Z,96806.75
2022-09-28T07:25:50.760Z,96806.63
2022-09-28T07:28:17.416Z,96806.06
2022-09-28T07:30:44.726Z,96808.44
2022-09-28T07:33:14.618Z,96818.28
2022-09-28T07:35:42.353Z,96823.66
2022-09-28T07:38:10.791Z,96836.03
2022-09-28T07:40:56.269Z,96841.09
2022-09-28T07:43:22.837Z,96859.16
2022-09-28T07:45:54.043Z,96869.41
2022-09-28T07:48:21.835Z,96883.47
2022-09-28T07:50:52.859Z,96891.22
2022-09-28T07:53:20.792Z,96884.41
2022-09-28T07:55:57.596Z,96884.41
2022-09-28T07:58:24.106Z,96890.28
2022-09-28T08:00:50.893Z,96899.25
2022-09-28T08:03:19.242Z,96905.56
2022-09-28T08:05:46.887Z,96906.84
2022-09-28T08:08:14.582Z,96906.00
2022-09-28T08:10:47.281Z,96908.69
2022-09-28T08:13:15.233Z,96909.56
2022-09-28T08:15:42.636Z,96905.06
2022-09-28T08:18:09.498Z,96904.06
2022-09-28T08:20:54.485Z,96914.03
2022-09-28T08:23:21.001Z,96899.47
2022-09-28T08:25:49.099Z,96892.84
2022-09-28T08:28:17.621Z,96897.06
2022-09-28T08:30:45.302Z,96893.75
2022-09-28T08:33:13.075Z,96901.03
2022-09-28T08:35:41.246Z,96905.06
2022-09-28T08:38:08.786Z,96909.66
2022-09-28T08:40:48.876Z,96904.69
2022-09-28T08:43:33.116Z,96898.94
2022-09-28T08:46:01.082Z,96901.78
2022-09-28T08:48:49.018Z,96908.34
2022-09-28T08:51:30.983Z,96914.16
2022-09-28T08:54:25.620Z,96920.56
2022-09-28T08:56:56.955Z,96916.50
2022-09-28T08:59:29.508Z,96909.72
2022-09-28T09:02:03.611Z,96910.00
2022-09-28T09:04:33.340Z,96907.63
2022-09-28T09:07:31.744Z,96908.63
2022-09-28T09:10:20.912Z,96910.47
2022-09-28T09:12:57.250Z,96919.69
2022-09-28T09:15:26.651Z,96923.38
2022-09-28T09:18:20.067Z,96923.69
2022-09-28T09:20:59.444Z,96925.41
2022-09-28T09:23:34.754Z,96923.66
2022-09-28T09:26:23.025Z,96927.44
2022-09-28T09:29:10.136Z,96915.56
2022-09-28T09:31:55.432Z,96915.56
2022-09-28T09:35:00.088Z,96921.59
2022-09-28T09:37:47.597Z,96923.41
2022-09-28T09:40:32.327Z,96923.00
2022-09-28T09:43:33.846Z,96927.88
2022-09-28T09:46:37.509Z,96927.19
2022-09-28T09:49:34.551Z,96930.19
2022-09-28T09:52:26.966Z,96927.00
2022-09-28T09:55:00.102Z,96925.41
2022-09-28T09:57:47.178Z,96921.25
2022-09-28T10:00:15.751Z,96926.34
2022-09-28T10:02:45.868Z,96924.09
2022-09-28T10:05:12.291Z,96922.41
2022-09-28T10:07:45.716Z,96924.59
2022-09-28T10:10:19.094Z,96929.19
2022-09-28T10:12:45.420Z,96922.00
2022-09-28T10:15:16.145Z,96928.44
2022-09-28T10:17:42.899Z,96935.22
2022-09-28T10:20:13.511Z,96927.84
2022-09-28T10:22:40.723Z,96928.50
2022-09-28T10:25:09.817Z,96932.00
2022-09-28T10:27:42.059Z,96929.75
2022-09-28T10:30:19.045Z,96934.53
2022-09-28T10:32:48.471Z,96935.19
2022-09-28T10:35:21.557Z,96934.69
2022-09-28T10:37:59.644Z,96935.47
2022-09-28T10:40:34.157Z,96939.41
2022-09-28T10:43:06.349Z,96930.47
2022-09-28T10:45:36.877Z,96934.88
2022-09-28T10:48:07.336Z,96938.31
2022-09-28T10:50:34.966Z,96937.00
2022-09-28T10:53:20.985Z,96940.19
2022-09-28T10:56:26.894Z,96937.72
2022-09-28T10:58:53.323Z,96938.75
2022-09-28T11:01:26.755Z,96936.13
2022-09-28T11:03:59.797Z,96929.38
2022-09-28T11:06:32.248Z,96936.97
2022-09-28T11:09:01.804Z,96937.06
2022-09-28T11:11:29.622Z,96940.75
2022-09-28T11:14:01.082Z,96949.09
2022-09-28T11:16:33.722Z,96948.69
2022-09-28T11:19:28.786Z,96945.66
2022-09-28T11:21:55.297Z,96940.03
2022-09-28T11:24:24.465Z,96938.06
2022-09-28T11:26:54.449Z,96938.06
2022-09-28T11:29:26.830Z,96938.56
2022-09-28T11:32:00.505Z,96934.63
2022-09-28T11:34:59.494Z,96939.34
2022-09-28T11:37:59.278Z,96944.88
2022-09-28T11:40:34.960Z,96933.88
2022-09-28T11:43:30.551Z,96931.91
2022-09-28T11:46:12.024Z,96928.56
2022-09-28T11:48:47.721Z,96927.09
2022-09-28T11:51:26.748Z,96919.81
2022-09-28T11:54:02.710Z,96919.28
2022-09-28T11:56:41.621Z,96915.81
2022-09-28T11:59:24.912Z,96921.47
2022-09-28T12:02:03.358Z,96924.03
2022-09-28T12:04:41.225Z,96931.59
2022-09-28T12:07:23.237Z,96932.19
2022-09-28T12:10:03.427Z,96930.38
2022-09-28T12:12:33.512Z,96938.25
2022-09-28T12:15:11.551Z,96933.66
2022-09-28T12:17:46.983Z,96928.13
2022-09-28T12:20:22.692Z,96943.06
2022-09-28T12:23:15.290Z,96941.31
2022-09-28T12:25:49.554Z,96940.88
2022-09-28T12:28:31.469Z,96941.97
2022-09-28T12:31:11.921Z,96946.25
2022-09-28T12:33:39.374Z,96939.44
2022-09-28T12:36:30.162Z,96940.97
2022-09-28T12:39:21.717Z,96945.97
2022-09-28T12:41:58.040Z,96936.25
2022-09-28T12:44:52.898Z,96939.94
2022-09-28T12:47:59.173Z,96946.91
2022-09-28T12:50:41.733Z,96948.66
2022-09-28T12:53:27.091Z,96942.97
2022-09-28T12:56:04.048Z,96938.25
2022-09-28T12:58:42.691Z,96933.16
2022-09-28T13:01:18.289Z,96939.72
2022-09-28T13:04:12.755Z,96927.63
2022-09-28T13:06:53.105Z,96934.19
2022-09-28T13:09:23.905Z,96930.16
2022-09-28T13:12:05.592Z,96936.41
2022-09-28T13:15:04.204Z,96936.56
2022-09-28T13:17:40.639Z,96931.91
2022-09-28T13:20:52.123Z,96932.56
2022-09-28T13:23:25.590Z,96927.97
2022-09-28T13:26:19.304Z,96928.53
2022-09-28T13:28:47.215Z,96937.31
2022-09-28T13:31:20.154Z,96936.66
2022-09-28T13:33:47.940Z,96933.94
2022-09-28T13:36:30.464Z,96938.88
2022-09-28T13:38:59.487Z,96937.72
2022-09-28T13:41:30.373Z,96934.06
2022-09-28T13:44:20.959Z,96936.13
2022-09-28T13:47:20.931Z,96934.16
2022-09-28T13:50:12.047Z,96931.13
2022-09-28T13:52:56.774Z,96923.44
2022-09-28T13:55:32.949Z,96930.66
2022-09-28T13:58:35.911Z,96923.19
2022-09-28T14:01:10.454Z,96926.59
2022-09-28T14:03:36.927Z,96927.00
2022-09-28T14:06:11.507Z,96925.03
2022-09-28T14:08:44.347Z,96929.38
2022-09-28T14:11:21.745Z,96929.38
2022-09-28T14:14:07.976Z,96918.97
2022-09-28T14:16:36.215Z,96923.41
2022-09-28T14:19:08.701Z,96927.41
2022-09-28T14:22:11.632Z,96929.63
2022-09-28T14:25:04.522Z,96940.09
2022-09-28T14:27:44.057Z,96934.88
2022-09-28T14:30:13.522Z,96933.25
2022-09-28T14:32:43.061Z,96933.97
2022-09-28T14:35:48.492Z,96935.69
2022-09-28T14:38:37.487Z,96938.97
2022-09-28T14:41:15.960Z,96929.63
2022-09-28T14:43:45.417Z,96931.34
2022-09-28T14:46:11.980Z,96934.63
2022-09-28T14:48:47.943Z,96935.47
2022-09-28T14:51:26.790Z,96940.13
2022-09-28T14:54:17.814Z,96932.91
2022-09-28T14:56:53.530Z,96939.19
2022-09-28T14:59:22.479Z,96937.69
2022-09-28T15:01:57.825Z,96926.34
2022-09-28T15:04:28.690Z,96930.16
2022-09-28T15:06:55.522Z,96935.25
2022-09-28T15:09:30.179Z,96929.88
2022-09-28T15:12:05.890Z,96928.06
2022-09-28T15:14:35.248Z,96930.28
2022-09-28T15:17:10.064Z,96925.03
2022-09-28T15:20:17.243Z,96930.28
2022-09-28T15:22:49.015Z,96926.84
2022-09-28T15:25:24.372Z,96931.53
2022-09-28T15:27:54.211Z,96925.59
2022-09-28T15:30:33.867Z,96921.00
2022-09-28T15:33:20.901Z,96931.34
2022-09-28T15:36:04.531Z,96929.22
2022-09-28T15:38:33.241Z,96933.44
2022-09-28T15:41:04.534Z,96933.00
2022-09-28T15:43:33.183Z,96939.66
2022-09-28T15:46:07.156Z,96941.91
2022-09-28T15:48:40.673Z,96949.69
2022-09-28T15:51:11.657Z,96947.75
2022-09-28T15:53:45.934Z,96947.44
2022-09-28T15:56:12.708Z,96943.91
2022-09-28T15:58:39.912Z,96958.53
2022-09-28T16:01:28.507Z,96955.78
2022-09-28T16:03:55.105Z,96954.09
2022-09-28T16:06:21.562Z,96961.59
2022-09-28T16:08:50.582Z,96954.69
2022-09-28T16:11:37.932Z,96960.56
2022-09-28T16:14:15.850Z,96963.84
2022-09-28T16:16:47.005Z,96963.69
2022-09-28T16:19:29.701Z,96971.41
2022-09-28T16:22:02.349Z,96973.38
2022-09-28T16:24:33.036Z,96977.19
2022-09-28T16:27:08.233Z,96989.06
2022-09-28T16:29:44.980Z,96983.38
2022-09-28T16:32:26.463Z,96983.56
2022-09-28T16:35:16.600Z,96978.06
2022-09-28T16:37:43.149Z,96992.88
2022-09-28T16:40:10.759Z,96994.31
2022-09-28T16:42:38.657Z,96992.66
2022-09-28T16:45:06.731Z,97001.44
2022-09-28T16:47:34.699Z,97002.34
2022-09-28T16:50:02.480Z,97004.81
2022-09-28T16:52:47.366Z,97005.19
2022-09-28T16:55:39.671Z,97001.59
2022-09-28T16:58:04.747Z,97005.31
2022-09-28T17:00:31.830Z,97003.47
2022-09-28T17:02:58.594Z,97008.22
2022-09-28T17:05:25.495Z,97010.34
2022-09-28T17:08:01.404Z,97007.53
2022-09-28T17:10:45.163Z,97010.53
2022-09-28T17:13:33.376Z,97010.59
2022-09-28T17:16:01.690Z,97011.13
2022-09-28T17:18:31.645Z,97014.44
2022-09-28T17:21:03.147Z,97023.53
2022-09-28T17:23:29.856Z,97018.59
2022-09-28T17:25:56.444Z,97018.81
2022-09-28T17:28:31.313Z,97014.59
2022-09-28T17:30:58.118Z,97020.53
2022-09-28T17:33:24.668Z,97012.97
2022-09-28T17:35:57.640Z,97024.66
2022-09-28T17:38:24.179Z,97024.78
2022-09-28T17:40:50.665Z,97027.66
2022-09-28T17:43:17.268Z,97026.38
2022-09-28T17:45:46.684Z,97012.41
2022-09-28T17:48:17.698Z,97026.59
2022-09-28T17:50:46.634Z,97025.00
2022-09-28T17:53:13.695Z,97015.25
2022-09-28T17:55:40.636Z,97025.63
2022-09-28T17:58:21.661Z,97030.44
2022-09-28T18:00:50.333Z,97041.78
2022-09-28T18:03:21.116Z,97037.50
2022-09-28T18:05:53.646Z,97038.03
2022-09-28T18:08:21.471Z,97035.59
2022-09-28T18:10:47.959Z,97038.63
2022-09-28T18:13:14.839Z,97043.38
2022-09-28T18:15:41.858Z,97054.41
2022-09-28T18:18:09.599Z,97054.13
2022-09-28T18:20:36.893Z,97060.72
2022-09-28T18:23:03.461Z,97058.75
2022-09-28T18:25:30.081Z,97068.41
2022-09-28T18:28:00.855Z,97068.41
2022-09-28T18:30:28.174Z,97081.22
2022-09-28T18:32:54.982Z,97077.97
2022-09-28T18:35:23.137Z,97073.22
2022-09-28T18:37:50.367Z,97083.63
2022-09-28T18:40:17.287Z,97080.13
2022-09-28T18:42:43.779Z,97089.88
2022-09-28T18:45:11.250Z,97090.44
2022-09-28T18:47:38.909Z,97085.47
2022-09-28T18:50:06.220Z,97086.25
2022-09-28T18:52:35.914Z,97091.03
2022-09-28T18:55:02.360Z,97088.38
2022-09-28T18:57:28.826Z,97091.69
2022-09-28T18:59:55.261Z,97099.44
2022-09-28T19:02:21.780Z,97103.81
2022-09-28T19:04:48.284Z,97100.94
2022-09-28T19:07:14.700Z,97102.69
2022-09-28T19:09:43.954Z,97097.03
2022-09-28T19:12:14.486Z,97102.88
2022-09-28T19:14:40.936Z,97101.75
2022-09-28T19:17:07.504Z,97102.56
2022-09-28T19:19:34.078Z,97102.78
2022-09-28T19:22:00.825Z,97106.56
2022-09-28T19:24:27.675Z,97098.28
2022-09-28T19:26:54.374Z,97096.75
2022-09-28T19:29:21.547Z,97098.56
2022-09-28T19:31:49.605Z,97099.63
2022-09-28T19:34:16.414Z,97104.16
2022-09-28T19:36:43.244Z,97105.50
2022-09-28T19:39:14.280Z,97105.44
2022-09-28T19:41:44.787Z,97107.03
2022-09-28T19:44:24.457Z,97111.97
2022-09-28T19:47:07.365Z,97110.66
2022-09-28T19:49:38.437Z,97115.16
2022-09-28T19:52:15.666Z,97109.75
2022-09-28T19:54:56.693Z,97108.84
2022-09-28T19:57:28.508Z,97105.59
2022-09-28T20:00:00.882Z,97101.28
2022-09-28T20:02:29.006Z,97105.03
2022-09-28T20:04:55.524Z,97098.50
2022-09-28T20:07:21.963Z,97112.47
2022-09-28T20:09:48.385Z,97107.28
2022-09-28T20:12:14.829Z,97107.56
2022-09-28T20:14:41.266Z,97113.19
2022-09-28T20:17:08.064Z,97109.13
2022-09-28T20:19:34.895Z,97111.84
2022-09-28T20:22:02.722Z,97105.50
2022-09-28T20:24:29.522Z,97100.22
2022-09-28T20:26:56.213Z,97109.13
2022-09-28T20:29:24.263Z,97109.94
2022-09-28T20:31:51.755Z,97100.25
2022-09-28T20:34:18.368Z,97099.72
2022-09-28T20:36:44.818Z,97095.41
2022-09-28T20:39:12.087Z,97105.41
2022-09-28T20:41:38.597Z,97105.59
2022-09-28T20:44:06.740Z,97104.28
2022-09-28T20:46:37.071Z,97107.78
2022-09-28T20:49:05.125Z,97109.00
2022-09-28T20:51:31.821Z,97110.13
2022-09-28T20:53:59.376Z,97103.09
2022-09-28T20:56:26.868Z,97097.94
2022-09-28T20:58:54.451Z,97106.28
2022-09-28T21:01:26.554Z,97103.50
2022-09-28T21:04:01.702Z,97098.72
2022-09-28T21:06:36.661Z,97106.78
2022-09-28T21:09:05.404Z,97110.09
2022-09-28T21:11:33.035Z,97110.16
2022-09-28T21:14:01.955Z,97108.03
2022-09-28T21:16:30.646Z,97096.22
2022-09-28T21:18:57.651Z,97095.13
2022-09-28T21:21:25.311Z,97091.06
2022-09-28T21:23:53.297Z,97091.31
2022-09-28T21:26:25.273Z,97090.22
2022-09-28T21:29:14.554Z,97089.66
2022-09-28T21:31:45.756Z,97080.97
2022-09-28T21:34:20.684Z,97079.44
2022-09-28T21:36:51.226Z,97080.47
2022-09-28T21:39:18.329Z,97078.53
2022-09-28T21:41:44.756Z,97069.88
2022-09-28T21:44:11.250Z,97075.03
2022-09-28T21:46:38.860Z,97063.19
2022-09-28T21:49:07.614Z,97056.66
2022-09-28T21:51:35.315Z,97062.72
2022-09-28T21:54:01.737Z,97061.06
2022-09-28T21:56:28.604Z,97062.16
2022-09-28T21:58:55.283Z,97063.78
2022-09-28T22:01:26.091Z,97057.19
2022-09-28T22:03:55.295Z,97063.41
2022-09-28T22:06:24.010Z,97071.41
2022-09-28T22:08:51.062Z,97063.88
2022-09-28T22:11:21.024Z,97073.03
2022-09-28T22:13:52.877Z,97072.97
2022-09-28T22:16:21.923Z,97070.84
2022-09-28T22:18:48.894Z,97071.47
2022-09-28T22:21:23.958Z,97075.28
2022-09-28T22:23:50.994Z,97072.06
2022-09-28T22:26:25.729Z,97076.44
2022-09-28T22:28:57.832Z,97078.19
2022-09-28T22:31:27.570Z,97079.00
2022-09-28T22:33:54.325Z,97068.78
2022-09-28T22:36:21.222Z,97075.41
2022-09-28T22:38:47.924Z,97080.22
2022-09-28T22:41:16.335Z,97075.22
2022-09-28T22:43:43.594Z,97083.91
2022-09-28T22:46:12.503Z,97080.09
2022-09-28T22:48:39.224Z,97080.59
2022-09-28T22:51:07.114Z,97078.03
2022-09-28T22:53:35.162Z,97074.50
2022-09-28T22:56:05.564Z,97067.69
2022-09-28T22:58:33.497Z,97064.88
2022-09-28T23:01:07.849Z,97052.81
2022-09-28T23:03:34.883Z,97052.38
2022-09-28T23:06:01.710Z,97055.03
2022-09-28T23:08:28.533Z,97049.09
2022-09-28T23:10:54.996Z,97047.00
2022-09-28T23:13:21.412Z,97044.09
2022-09-28T23:16:02.742Z,97041.75
2022-09-28T23:18:31.643Z,97038.16
2022-09-28T23:21:00.413Z,97048.13
2022-09-28T23:23:27.547Z,97044.16
2022-09-28T23:25:54.362Z,97046.63
2022-09-28T23:28:22.566Z,97039.38
2022-09-28T23:30:49.170Z,97047.47
2022-09-28T23:33:20.105Z,97046.97
2022-09-28T23:35:47.070Z,97054.41
2022-09-28T23:38:15.333Z,97052.28
2022-09-28T23:40:41.887Z,97044.09
2022-09-28T23:43:08.566Z,97040.91
2022-09-28T23:45:34.970Z,97047.56
2022-09-28T23:48:02.024Z,97039.22
2022-09-28T23:50:28.579Z,97043.31
2022-09-28T23:52:55.034Z,97041.13
2022-09-28T23:55:21.615Z,97038.72
2022-09-28T23:57:48.108Z,97044.22
